JLY1087 SBCT-SBFL
Flight info
| Callsign | JLY1087 |
|---|---|
| Flight time | 0h 30m |
| Altitude | 15000 |
| Route | PONLU |
| Aircraft | B738/M-SDE2E3FGHIRWXY/LB1 |
Departure
| Time | 2026-04-25 02:18 |
|---|---|
| Airport | Curitiba-Afonso Pena International Airport (SBCT) |
Arrival
| Time | 2026-04-25 02:48 |
|---|---|
| Airport | Hercílio Luz International Airport (SBFL) |
| Time | Latitude | Longitude | Altitude | Speed | Heading |
|---|---|---|---|---|---|
| 2026-04-25 01:54 | -25.53662 | -49.17111 | 2995 ft | 0 kts | 225° |
| 2026-04-25 02:09 | -25.53658 | -49.17107 | 2995 ft | 2 kts | 224° |
| 2026-04-25 02:09 | -25.53647 | -49.17094 | 2995 ft | 2 kts | 231° |
| 2026-04-25 02:09 | -25.53637 | -49.17079 | 2995 ft | 2 kts | 237° |
| 2026-04-25 02:09 | -25.53630 | -49.17063 | 2995 ft | 2 kts | 256° |
| 2026-04-25 02:10 | -25.53630 | -49.17045 | 2995 ft | 2 kts | 302° |
| 2026-04-25 02:10 | -25.53634 | -49.17039 | 2995 ft | 0 kts | 312° |
| 2026-04-25 02:12 | -25.53622 | -49.17040 | 2995 ft | 3 kts | 3° |
| 2026-04-25 02:12 | -25.53586 | -49.17024 | 2995 ft | 8 kts | 17° |
| 2026-04-25 02:12 | -25.53531 | -49.17038 | 2995 ft | 10 kts | 319° |
| 2026-04-25 02:12 | -25.53473 | -49.17102 | 2995 ft | 13 kts | 315° |
| 2026-04-25 02:13 | -25.53401 | -49.17182 | 2995 ft | 16 kts | 315° |
| 2026-04-25 02:13 | -25.53317 | -49.17276 | 2995 ft | 19 kts | 315° |
| 2026-04-25 02:13 | -25.53220 | -49.17385 | 2995 ft | 21 kts | 314° |
| 2026-04-25 02:13 | -25.53113 | -49.17506 | 2995 ft | 23 kts | 314° |
| 2026-04-25 02:14 | -25.53011 | -49.17620 | 2995 ft | 13 kts | 315° |
| 2026-04-25 02:14 | -25.52980 | -49.17710 | 2995 ft | 13 kts | 272° |
| 2026-04-25 02:14 | -25.52978 | -49.17819 | 2994 ft | 15 kts | 271° |
| 2026-04-25 02:14 | -25.52939 | -49.17906 | 2994 ft | 10 kts | 315° |
| 2026-04-25 02:15 | -25.52878 | -49.17973 | 2993 ft | 15 kts | 318° |
| 2026-04-25 02:15 | -25.52780 | -49.17995 | 2993 ft | 14 kts | 358° |
| 2026-04-25 02:15 | -25.52692 | -49.17998 | 2995 ft | 12 kts | 358° |
| 2026-04-25 02:15 | -25.52597 | -49.18002 | 2995 ft | 15 kts | 358° |
| 2026-04-25 02:16 | -25.52484 | -49.18009 | 2995 ft | 18 kts | 345° |
| 2026-04-25 02:16 | -25.52384 | -49.18099 | 2995 ft | 20 kts | 315° |
| 2026-04-25 02:16 | -25.52295 | -49.18197 | 2996 ft | 15 kts | 321° |
| 2026-04-25 02:16 | -25.52213 | -49.18240 | 2996 ft | 11 kts | 306° |
| 2026-04-25 02:17 | -25.52236 | -49.18267 | 2995 ft | 4 kts | 156° |
| 2026-04-25 02:17 | -25.52243 | -49.18259 | 2995 ft | 0 kts | 134° |
| 2026-04-25 02:17 | -25.52316 | -49.18176 | 2996 ft | 46 kts | 134° |
| 2026-04-25 02:18 | -25.52721 | -49.17720 | 2994 ft | 118 kts | 134° |
| 2026-04-25 02:18 | -25.53436 | -49.16920 | 3053 ft | 168 kts | 134° |
| 2026-04-25 02:18 | -25.54278 | -49.15994 | 3762 ft | 172 kts | 133° |
| 2026-04-25 02:18 | -25.55177 | -49.15099 | 4457 ft | 179 kts | 157° |
| 2026-04-25 02:19 | -25.56440 | -49.14867 | 5002 ft | 197 kts | 178° |
| 2026-04-25 02:19 | -25.57918 | -49.14747 | 5257 ft | 226 kts | 177° |
| 2026-04-25 02:19 | -25.59554 | -49.14606 | 5456 ft | 251 kts | 177° |
| 2026-04-25 02:19 | -25.61350 | -49.14443 | 5839 ft | 269 kts | 177° |
| 2026-04-25 02:20 | -25.63281 | -49.14259 | 6312 ft | 285 kts | 177° |
| 2026-04-25 02:20 | -25.65275 | -49.14060 | 7137 ft | 288 kts | 177° |
| 2026-04-25 02:20 | -25.67268 | -49.13855 | 8048 ft | 288 kts | 177° |
| 2026-04-25 02:20 | -25.69265 | -49.13647 | 8924 ft | 289 kts | 177° |
| 2026-04-25 02:21 | -25.71277 | -49.13434 | 9802 ft | 291 kts | 177° |
| 2026-04-25 02:21 | -25.73310 | -49.13218 | 10539 ft | 297 kts | 177° |
| 2026-04-25 02:21 | -25.75402 | -49.12997 | 11102 ft | 308 kts | 177° |
| 2026-04-25 02:21 | -25.77569 | -49.12776 | 11755 ft | 315 kts | 177° |
| 2026-04-25 02:22 | -25.78597 | -49.12677 | 12083 ft | 319 kts | 177° |
| 2026-04-25 02:22 | -25.79650 | -49.12570 | 12247 ft | 329 kts | 176° |
| 2026-04-25 02:22 | -25.82013 | -49.12317 | 12389 ft | 352 kts | 176° |
| 2026-04-25 02:22 | -25.84531 | -49.12040 | 12586 ft | 372 kts | 176° |
| 2026-04-25 02:23 | -25.87136 | -49.11751 | 13064 ft | 380 kts | 176° |
| 2026-04-25 02:23 | -25.89789 | -49.11456 | 13730 ft | 384 kts | 176° |
| 2026-04-25 02:23 | -25.92459 | -49.11162 | 14358 ft | 387 kts | 176° |
| 2026-04-25 02:23 | -25.95155 | -49.10867 | 14913 ft | 392 kts | 177° |
| 2026-04-25 02:24 | -25.97879 | -49.10570 | 15039 ft | 394 kts | 177° |
| 2026-04-25 02:24 | -26.00613 | -49.10273 | 15067 ft | 396 kts | 177° |
| 2026-04-25 02:24 | -26.03351 | -49.09976 | 15062 ft | 395 kts | 177° |
| 2026-04-25 02:24 | -26.06088 | -49.09678 | 15058 ft | 395 kts | 177° |
| 2026-04-25 02:25 | -26.08822 | -49.09382 | 15055 ft | 395 kts | 177° |
| 2026-04-25 02:25 | -26.11574 | -49.09083 | 15060 ft | 395 kts | 177° |
| 2026-04-25 02:25 | -26.14312 | -49.08785 | 15053 ft | 396 kts | 177° |
| 2026-04-25 02:25 | -26.17051 | -49.08488 | 15048 ft | 396 kts | 177° |
| 2026-04-25 02:26 | -26.19798 | -49.08189 | 15042 ft | 396 kts | 177° |
| 2026-04-25 02:26 | -26.22540 | -49.07891 | 15043 ft | 396 kts | 177° |
| 2026-04-25 02:26 | -26.25290 | -49.07591 | 15043 ft | 396 kts | 177° |
| 2026-04-25 02:26 | -26.27999 | -49.07296 | 15037 ft | 396 kts | 177° |
| 2026-04-25 02:27 | -26.30779 | -49.06994 | 15041 ft | 396 kts | 177° |
| 2026-04-25 02:27 | -26.33495 | -49.06698 | 15021 ft | 396 kts | 177° |
| 2026-04-25 02:27 | -26.36233 | -49.06398 | 15041 ft | 393 kts | 178° |
| 2026-04-25 02:27 | -26.38965 | -49.06100 | 15047 ft | 394 kts | 178° |
| 2026-04-25 02:28 | -26.41701 | -49.05802 | 15050 ft | 395 kts | 178° |
| 2026-04-25 02:28 | -26.44443 | -49.05503 | 15038 ft | 396 kts | 178° |
| 2026-04-25 02:28 | -26.47189 | -49.05203 | 15026 ft | 396 kts | 178° |
| 2026-04-25 02:28 | -26.49922 | -49.04904 | 15041 ft | 395 kts | 178° |
| 2026-04-25 02:29 | -26.52614 | -49.04478 | 15025 ft | 398 kts | 168° |
| 2026-04-25 02:29 | -26.55153 | -49.03212 | 15054 ft | 401 kts | 153° |
| 2026-04-25 02:29 | -26.57580 | -49.01669 | 15038 ft | 402 kts | 153° |
| 2026-04-25 02:29 | -26.60000 | -49.00103 | 15038 ft | 402 kts | 153° |
| 2026-04-25 02:30 | -26.62425 | -48.98532 | 15208 ft | 403 kts | 153° |
| 2026-04-25 02:30 | -26.64844 | -48.96974 | 16127 ft | 397 kts | 153° |
| 2026-04-25 02:30 | -26.67213 | -48.95454 | 16753 ft | 390 kts | 154° |
| 2026-04-25 02:30 | -26.69612 | -48.93928 | 17024 ft | 404 kts | 154° |
| 2026-04-25 02:31 | -26.72114 | -48.92345 | 17020 ft | 421 kts | 154° |
| 2026-04-25 02:31 | -26.74705 | -48.90707 | 17029 ft | 435 kts | 154° |
| 2026-04-25 02:31 | -26.77374 | -48.89018 | 17025 ft | 446 kts | 154° |
| 2026-04-25 02:31 | -26.80107 | -48.87287 | 17019 ft | 454 kts | 154° |
| 2026-04-25 02:32 | -26.82847 | -48.85546 | 17007 ft | 451 kts | 154° |
| 2026-04-25 02:32 | -26.85564 | -48.83817 | 16996 ft | 446 kts | 154° |
| 2026-04-25 02:32 | -26.88249 | -48.82107 | 16993 ft | 444 kts | 154° |
| 2026-04-25 02:32 | -26.90908 | -48.80416 | 17001 ft | 446 kts | 154° |
| 2026-04-25 02:33 | -26.93608 | -48.78700 | 17007 ft | 446 kts | 154° |
| 2026-04-25 02:33 | -26.96315 | -48.76978 | 16536 ft | 447 kts | 154° |
| 2026-04-25 02:33 | -26.99002 | -48.75268 | 15879 ft | 441 kts | 154° |
| 2026-04-25 02:33 | -27.01652 | -48.73579 | 15169 ft | 436 kts | 153° |
| 2026-04-25 02:34 | -27.04275 | -48.71906 | 14432 ft | 431 kts | 153° |
| 2026-04-25 02:34 | -27.06873 | -48.70250 | 13692 ft | 428 kts | 153° |
| 2026-04-25 02:34 | -27.09441 | -48.68612 | 12928 ft | 422 kts | 153° |
| 2026-04-25 02:34 | -27.11980 | -48.66991 | 12272 ft | 416 kts | 153° |
| 2026-04-25 02:35 | -27.14494 | -48.65386 | 11543 ft | 412 kts | 153° |
| 2026-04-25 02:35 | -27.16950 | -48.63817 | 11195 ft | 398 kts | 153° |
| 2026-04-25 02:35 | -27.19308 | -48.62307 | 10967 ft | 383 kts | 153° |
| 2026-04-25 02:35 | -27.21572 | -48.60857 | 10803 ft | 367 kts | 153° |
| 2026-04-25 02:36 | -27.23752 | -48.59461 | 10641 ft | 354 kts | 153° |
| 2026-04-25 02:36 | -27.25853 | -48.58116 | 10495 ft | 341 kts | 153° |
| 2026-04-25 02:36 | -27.27882 | -48.56817 | 10354 ft | 330 kts | 153° |
| 2026-04-25 02:36 | -27.29843 | -48.55562 | 10217 ft | 319 kts | 153° |
| 2026-04-25 02:37 | -27.31747 | -48.54341 | 10091 ft | 310 kts | 153° |
| 2026-04-25 02:37 | -27.32976 | -48.53554 | 9990 ft | 304 kts | 153° |
| 2026-04-25 02:37 | -27.35360 | -48.52026 | 9644 ft | 299 kts | 153° |
| 2026-04-25 02:37 | -27.36582 | -48.51244 | 9398 ft | 299 kts | 153° |
| 2026-04-25 02:38 | -27.38976 | -48.49710 | 8927 ft | 298 kts | 153° |
| 2026-04-25 02:38 | -27.40196 | -48.48928 | 8712 ft | 297 kts | 153° |
| 2026-04-25 02:38 | -27.41984 | -48.47780 | 8390 ft | 295 kts | 153° |
| 2026-04-25 02:38 | -27.43741 | -48.46652 | 8086 ft | 293 kts | 153° |
| 2026-04-25 02:39 | -27.45510 | -48.45515 | 7777 ft | 292 kts | 152° |
| 2026-04-25 02:39 | -27.47268 | -48.44385 | 7474 ft | 290 kts | 152° |
| 2026-04-25 02:39 | -27.49021 | -48.43257 | 7168 ft | 290 kts | 152° |
| 2026-04-25 02:39 | -27.50768 | -48.42133 | 6863 ft | 289 kts | 152° |
| 2026-04-25 02:40 | -27.51763 | -48.41493 | 6682 ft | 288 kts | 152° |
| 2026-04-25 02:40 | -27.53101 | -48.40632 | 6432 ft | 288 kts | 152° |
| 2026-04-25 02:40 | -27.54839 | -48.39512 | 6114 ft | 287 kts | 152° |
| 2026-04-25 02:40 | -27.56568 | -48.38398 | 5796 ft | 286 kts | 152° |
| 2026-04-25 02:41 | -27.58292 | -48.37286 | 5489 ft | 284 kts | 152° |
| 2026-04-25 02:41 | -27.59974 | -48.36201 | 5383 ft | 272 kts | 152° |
| 2026-04-25 02:41 | -27.61616 | -48.35142 | 4953 ft | 269 kts | 152° |
| 2026-04-25 02:41 | -27.63219 | -48.34108 | 4631 ft | 261 kts | 151° |
| 2026-04-25 02:42 | -27.64763 | -48.33111 | 4349 ft | 252 kts | 151° |
| 2026-04-25 02:42 | -27.66263 | -48.32157 | 4094 ft | 242 kts | 155° |
| 2026-04-25 02:42 | -27.67841 | -48.31800 | 3914 ft | 225 kts | 187° |
| 2026-04-25 02:42 | -27.69300 | -48.32263 | 3739 ft | 215 kts | 209° |
| 2026-04-25 02:43 | -27.70581 | -48.33088 | 3682 ft | 208 kts | 214° |
| 2026-04-25 02:43 | -27.71817 | -48.33951 | 3402 ft | 208 kts | 215° |
| 2026-04-25 02:43 | -27.73034 | -48.34797 | 3184 ft | 202 kts | 215° |
| 2026-04-25 02:43 | -27.74216 | -48.35612 | 2976 ft | 196 kts | 215° |
| 2026-04-25 02:44 | -27.75216 | -48.36573 | 2765 ft | 182 kts | 245° |
| 2026-04-25 02:44 | -27.75500 | -48.37856 | 2638 ft | 168 kts | 277° |
| 2026-04-25 02:44 | -27.75176 | -48.39084 | 2481 ft | 162 kts | 305° |
| 2026-04-25 02:44 | -27.74594 | -48.40169 | 2346 ft | 161 kts | 305° |
| 2026-04-25 02:45 | -27.74023 | -48.41248 | 2178 ft | 159 kts | 306° |
| 2026-04-25 02:45 | -27.73455 | -48.42312 | 2035 ft | 158 kts | 305° |
| 2026-04-25 02:45 | -27.72889 | -48.43367 | 1894 ft | 154 kts | 306° |
| 2026-04-25 02:45 | -27.72350 | -48.44373 | 1784 ft | 143 kts | 305° |
| 2026-04-25 02:46 | -27.71844 | -48.45317 | 1578 ft | 138 kts | 305° |
| 2026-04-25 02:46 | -27.71355 | -48.46229 | 1399 ft | 135 kts | 305° |
| 2026-04-25 02:46 | -27.70861 | -48.47144 | 1232 ft | 138 kts | 305° |
| 2026-04-25 02:46 | -27.70354 | -48.48087 | 1072 ft | 142 kts | 305° |
| 2026-04-25 02:47 | -27.69841 | -48.49040 | 951 ft | 142 kts | 304° |
| 2026-04-25 02:47 | -27.69315 | -48.49993 | 734 ft | 144 kts | 303° |
| 2026-04-25 02:47 | -27.68805 | -48.50942 | 550 ft | 144 kts | 302° |
| 2026-04-25 02:47 | -27.68301 | -48.51931 | 325 ft | 146 kts | 301° |
| 2026-04-25 02:48 | -27.67768 | -48.52906 | 111 ft | 146 kts | 303° |
| 2026-04-25 02:48 | -27.67257 | -48.53851 | 22 ft | 132 kts | 302° |
| 2026-04-25 02:48 | -27.66881 | -48.54544 | 29 ft | 73 kts | 301° |
| 2026-04-25 02:48 | -27.66705 | -48.54872 | 29 ft | 33 kts | 301° |
| 2026-04-25 02:49 | -27.66616 | -48.55038 | 28 ft | 16 kts | 301° |
| 2026-04-25 02:49 | -27.66613 | -48.55134 | 27 ft | 13 kts | 214° |
| 2026-04-25 02:49 | -27.66695 | -48.55128 | 27 ft | 11 kts | 167° |
| 2026-04-25 02:49 | -27.66766 | -48.55104 | 27 ft | 11 kts | 148° |
| 2026-04-25 02:50 | -27.66809 | -48.55039 | 27 ft | 10 kts | 120° |
| 2026-04-25 02:50 | -27.66845 | -48.54970 | 26 ft | 11 kts | 121° |
| 2026-04-25 02:50 | -27.66890 | -48.54887 | 26 ft | 14 kts | 121° |
| 2026-04-25 02:50 | -27.66948 | -48.54781 | 27 ft | 17 kts | 121° |
| 2026-04-25 02:51 | -27.67015 | -48.54655 | 27 ft | 18 kts | 121° |
| 2026-04-25 02:51 | -27.67074 | -48.54595 | 28 ft | 11 kts | 183° |
| 2026-04-25 02:51 | -27.67157 | -48.54618 | 28 ft | 14 kts | 172° |
| 2026-04-25 02:51 | -27.67219 | -48.54561 | 28 ft | 12 kts | 123° |
| 2026-04-25 02:52 | -27.67267 | -48.54473 | 28 ft | 7 kts | 121° |
| 2026-04-25 02:52 | -27.67280 | -48.54452 | 28 ft | 2 kts | 134° |
| 2026-04-25 02:52 | -27.67296 | -48.54455 | 28 ft | 3 kts | 203° |
| 2026-04-25 02:52 | -27.67319 | -48.54469 | 28 ft | 2 kts | 211° |
| 2026-04-25 02:53 | -27.67320 | -48.54470 | 28 ft | 0 kts | 211° |